sensor_id;sensor_type;location;lat;lon;timestamp;P1;durP1;ratioP1;P2;durP2;ratioP2
18510;SDS011;9384;48.044;11.616;2022-08-03T00:02:13;1.07;;;1.07;;
18510;SDS011;9384;48.044;11.616;2022-08-03T00:04:40;1.50;;;1.40;;
18510;SDS011;9384;48.044;11.616;2022-08-03T00:07:08;1.20;;;1.20;;
18510;SDS011;9384;48.044;11.616;2022-08-03T00:09:35;1.30;;;1.30;;
18510;SDS011;9384;48.044;11.616;2022-08-03T00:12:02;1.67;;;1.57;;
18510;SDS011;9384;48.044;11.616;2022-08-03T00:14:30;2.67;;;1.50;;
18510;SDS011;9384;48.044;11.616;2022-08-03T00:16:57;1.27;;;1.27;;
18510;SDS011;9384;48.044;11.616;2022-08-03T00:19:26;1.77;;;1.67;;
18510;SDS011;9384;48.044;11.616;2022-08-03T00:21:53;1.33;;;1.33;;
18510;SDS011;9384;48.044;11.616;2022-08-03T00:24:20;1.70;;;1.70;;
18510;SDS011;9384;48.044;11.616;2022-08-03T00:26:47;2.27;;;1.37;;
18510;SDS011;9384;48.044;11.616;2022-08-03T00:29:14;1.40;;;1.40;;
18510;SDS011;9384;48.044;11.616;2022-08-03T00:31:42;1.70;;;1.60;;
18510;SDS011;9384;48.044;11.616;2022-08-03T00:34:09;1.90;;;1.80;;
18510;SDS011;9384;48.044;11.616;2022-08-03T00:36:37;1.90;;;1.50;;
18510;SDS011;9384;48.044;11.616;2022-08-03T00:39:05;1.70;;;1.60;;
18510;SDS011;9384;48.044;11.616;2022-08-03T00:41:32;2.00;;;1.40;;
18510;SDS011;9384;48.044;11.616;2022-08-03T00:43:59;2.13;;;1.60;;
18510;SDS011;9384;48.044;11.616;2022-08-03T00:46:26;1.50;;;1.50;;
18510;SDS011;9384;48.044;11.616;2022-08-03T00:48:53;1.50;;;1.50;;
18510;SDS011;9384;48.044;11.616;2022-08-03T00:51:21;1.70;;;1.60;;
18510;SDS011;9384;48.044;11.616;2022-08-03T00:53:50;1.40;;;1.40;;
18510;SDS011;9384;48.044;11.616;2022-08-03T00:56:17;3.23;;;1.73;;
18510;SDS011;9384;48.044;11.616;2022-08-03T00:58:45;1.50;;;1.50;;
18510;SDS011;9384;48.044;11.616;2022-08-03T01:01:12;1.57;;;1.30;;
18510;SDS011;9384;48.044;11.616;2022-08-03T01:03:40;1.60;;;1.60;;
18510;SDS011;9384;48.044;11.616;2022-08-03T01:06:10;1.60;;;1.50;;
18510;SDS011;9384;48.044;11.616;2022-08-03T01:08:40;1.60;;;1.50;;
18510;SDS011;9384;48.044;11.616;2022-08-03T01:11:11;1.30;;;1.20;;
18510;SDS011;9384;48.044;11.616;2022-08-03T01:13:44;1.30;;;1.30;;
18510;SDS011;9384;48.044;11.616;2022-08-03T01:16:14;1.73;;;1.33;;
18510;SDS011;9384;48.044;11.616;2022-08-03T01:18:44;1.30;;;1.23;;
18510;SDS011;9384;48.044;11.616;2022-08-03T01:21:13;1.10;;;1.10;;
18510;SDS011;9384;48.044;11.616;2022-08-03T01:23:55;1.47;;;1.37;;
18510;SDS011;9384;48.044;11.616;2022-08-03T01:26:36;1.30;;;1.30;;
18510;SDS011;9384;48.044;11.616;2022-08-03T01:29:14;1.43;;;1.33;;
18510;SDS011;9384;48.044;11.616;2022-08-03T01:31:50;2.53;;;1.40;;
18510;SDS011;9384;48.044;11.616;2022-08-03T01:34:19;2.07;;;1.20;;
18510;SDS011;9384;48.044;11.616;2022-08-03T01:36:48;1.47;;;1.47;;
18510;SDS011;9384;48.044;11.616;2022-08-03T01:39:17;4.53;;;1.13;;
18510;SDS011;9384;48.044;11.616;2022-08-03T01:41:46;2.30;;;1.57;;
18510;SDS011;9384;48.044;11.616;2022-08-03T01:44:15;2.13;;;1.63;;
18510;SDS011;9384;48.044;11.616;2022-08-03T01:46:42;1.60;;;1.50;;
18510;SDS011;9384;48.044;11.616;2022-08-03T01:49:14;4.47;;;1.50;;
18510;SDS011;9384;48.044;11.616;2022-08-03T01:51:42;1.57;;;1.50;;
18510;SDS011;9384;48.044;11.616;2022-08-03T01:54:11;4.40;;;1.60;;
18510;SDS011;9384;48.044;11.616;2022-08-03T01:56:38;1.47;;;1.43;;
18510;SDS011;9384;48.044;11.616;2022-08-03T01:59:06;1.30;;;1.30;;
18510;SDS011;9384;48.044;11.616;2022-08-03T02:01:34;1.90;;;1.40;;
18510;SDS011;9384;48.044;11.616;2022-08-03T02:04:02;1.33;;;1.23;;
18510;SDS011;9384;48.044;11.616;2022-08-03T02:06:31;2.67;;;1.57;;
18510;SDS011;9384;48.044;11.616;2022-08-03T02:08:59;1.73;;;1.73;;
18510;SDS011;9384;48.044;11.616;2022-08-03T02:11:27;1.77;;;1.67;;
18510;SDS011;9384;48.044;11.616;2022-08-03T02:13:56;2.20;;;1.20;;
18510;SDS011;9384;48.044;11.616;2022-08-03T02:16:24;1.40;;;1.40;;
18510;SDS011;9384;48.044;11.616;2022-08-03T02:18:52;1.83;;;1.50;;
18510;SDS011;9384;48.044;11.616;2022-08-03T02:21:20;3.63;;;1.50;;
18510;SDS011;9384;48.044;11.616;2022-08-03T02:23:49;1.70;;;1.60;;
18510;SDS011;9384;48.044;11.616;2022-08-03T02:26:17;2.23;;;1.20;;
18510;SDS011;9384;48.044;11.616;2022-08-03T02:28:46;1.50;;;1.40;;
18510;SDS011;9384;48.044;11.616;2022-08-03T02:31:15;1.50;;;1.50;;
18510;SDS011;9384;48.044;11.616;2022-08-03T02:33:45;4.13;;;1.60;;
18510;SDS011;9384;48.044;11.616;2022-08-03T02:36:14;1.43;;;1.43;;
18510;SDS011;9384;48.044;11.616;2022-08-03T02:38:42;1.73;;;1.63;;
18510;SDS011;9384;48.044;11.616;2022-08-03T02:41:14;2.27;;;1.60;;
18510;SDS011;9384;48.044;11.616;2022-08-03T02:43:42;1.60;;;1.50;;
18510;SDS011;9384;48.044;11.616;2022-08-03T02:46:12;1.73;;;1.63;;
18510;SDS011;9384;48.044;11.616;2022-08-03T02:48:40;1.70;;;1.60;;
18510;SDS011;9384;48.044;11.616;2022-08-03T02:51:07;1.87;;;1.77;;
18510;SDS011;9384;48.044;11.616;2022-08-03T02:53:35;1.50;;;1.40;;
18510;SDS011;9384;48.044;11.616;2022-08-03T02:56:03;2.87;;;1.50;;
18510;SDS011;9384;48.044;11.616;2022-08-03T02:58:32;1.97;;;1.50;;
18510;SDS011;9384;48.044;11.616;2022-08-03T03:01:00;2.90;;;1.37;;
18510;SDS011;9384;48.044;11.616;2022-08-03T03:03:27;2.50;;;1.50;;
18510;SDS011;9384;48.044;11.616;2022-08-03T03:05:55;1.80;;;1.70;;
18510;SDS011;9384;48.044;11.616;2022-08-03T03:08:22;1.47;;;1.47;;
18510;SDS011;9384;48.044;11.616;2022-08-03T03:10:50;2.10;;;1.80;;
18510;SDS011;9384;48.044;11.616;2022-08-03T03:13:18;3.50;;;1.67;;
18510;SDS011;9384;48.044;11.616;2022-08-03T03:15:48;2.30;;;1.70;;
18510;SDS011;9384;48.044;11.616;2022-08-03T03:18:15;2.07;;;1.90;;
18510;SDS011;9384;48.044;11.616;2022-08-03T03:20:43;1.60;;;1.60;;
18510;SDS011;9384;48.044;11.616;2022-08-03T03:23:11;1.93;;;1.83;;
18510;SDS011;9384;48.044;11.616;2022-08-03T03:25:38;1.30;;;1.30;;
18510;SDS011;9384;48.044;11.616;2022-08-03T03:28:06;1.30;;;1.30;;
18510;SDS011;9384;48.044;11.616;2022-08-03T03:30:33;1.50;;;1.50;;
18510;SDS011;9384;48.044;11.616;2022-08-03T03:33:02;1.63;;;1.63;;
18510;SDS011;9384;48.044;11.616;2022-08-03T03:35:29;1.60;;;1.60;;
18510;SDS011;9384;48.044;11.616;2022-08-03T03:37:57;2.57;;;1.50;;
18510;SDS011;9384;48.044;11.616;2022-08-03T03:40:24;1.80;;;1.57;;
18510;SDS011;9384;48.044;11.616;2022-08-03T03:42:52;1.70;;;1.63;;
18510;SDS011;9384;48.044;11.616;2022-08-03T03:45:19;1.70;;;1.60;;
18510;SDS011;9384;48.044;11.616;2022-08-03T03:47:47;1.70;;;1.40;;
18510;SDS011;9384;48.044;11.616;2022-08-03T03:50:16;1.47;;;1.30;;
18510;SDS011;9384;48.044;11.616;2022-08-03T03:52:44;1.60;;;1.50;;
18510;SDS011;9384;48.044;11.616;2022-08-03T03:55:14;1.53;;;1.53;;
18510;SDS011;9384;48.044;11.616;2022-08-03T03:57:41;1.53;;;1.37;;
18510;SDS011;9384;48.044;11.616;2022-08-03T04:00:09;1.73;;;1.20;;
18510;SDS011;9384;48.044;11.616;2022-08-03T04:02:37;4.27;;;1.60;;
18510;SDS011;9384;48.044;11.616;2022-08-03T04:05:05;1.50;;;1.50;;
18510;SDS011;9384;48.044;11.616;2022-08-03T04:07:53;1.70;;;1.50;;
18510;SDS011;9384;48.044;11.616;2022-08-03T04:10:39;1.33;;;1.20;;
18510;SDS011;9384;48.044;11.616;2022-08-03T04:13:26;1.53;;;1.43;;
18510;SDS011;9384;48.044;11.616;2022-08-03T04:15:55;1.80;;;1.70;;
18510;SDS011;9384;48.044;11.616;2022-08-03T04:18:23;1.10;;;1.10;;
18510;SDS011;9384;48.044;11.616;2022-08-03T04:20:53;2.13;;;1.17;;
18510;SDS011;9384;48.044;11.616;2022-08-03T04:23:23;1.30;;;1.30;;
18510;SDS011;9384;48.044;11.616;2022-08-03T04:25:51;1.87;;;1.30;;
18510;SDS011;9384;48.044;11.616;2022-08-03T04:28:19;3.93;;;1.63;;
18510;SDS011;9384;48.044;11.616;2022-08-03T04:30:47;1.50;;;1.50;;
18510;SDS011;9384;48.044;11.616;2022-08-03T04:33:16;1.43;;;1.43;;
18510;SDS011;9384;48.044;11.616;2022-08-03T04:35:45;3.50;;;1.53;;
18510;SDS011;9384;48.044;11.616;2022-08-03T04:38:14;1.90;;;1.50;;
18510;SDS011;9384;48.044;11.616;2022-08-03T04:40:43;1.53;;;1.37;;
18510;SDS011;9384;48.044;11.616;2022-08-03T04:43:12;2.00;;;1.77;;
18510;SDS011;9384;48.044;11.616;2022-08-03T04:45:40;1.33;;;1.33;;
18510;SDS011;9384;48.044;11.616;2022-08-03T04:48:08;1.20;;;1.20;;
18510;SDS011;9384;48.044;11.616;2022-08-03T04:50:36;1.60;;;1.50;;
18510;SDS011;9384;48.044;11.616;2022-08-03T04:53:04;1.43;;;1.43;;
18510;SDS011;9384;48.044;11.616;2022-08-03T04:55:32;2.20;;;1.53;;
18510;SDS011;9384;48.044;11.616;2022-08-03T04:58:02;1.63;;;1.50;;
18510;SDS011;9384;48.044;11.616;2022-08-03T05:00:30;1.50;;;1.50;;
18510;SDS011;9384;48.044;11.616;2022-08-03T05:02:57;2.50;;;1.80;;
18510;SDS011;9384;48.044;11.616;2022-08-03T05:05:25;1.60;;;1.50;;
18510;SDS011;9384;48.044;11.616;2022-08-03T05:07:52;1.30;;;1.30;;
18510;SDS011;9384;48.044;11.616;2022-08-03T05:10:20;1.60;;;1.60;;
18510;SDS011;9384;48.044;11.616;2022-08-03T05:12:47;2.73;;;1.43;;
18510;SDS011;9384;48.044;11.616;2022-08-03T05:15:17;1.83;;;1.73;;
18510;SDS011;9384;48.044;11.616;2022-08-03T05:17:44;2.77;;;1.60;;
18510;SDS011;9384;48.044;11.616;2022-08-03T05:20:11;1.53;;;1.43;;
18510;SDS011;9384;48.044;11.616;2022-08-03T05:22:38;3.50;;;1.87;;
18510;SDS011;9384;48.044;11.616;2022-08-03T05:25:06;1.70;;;1.70;;
18510;SDS011;9384;48.044;11.616;2022-08-03T05:27:33;5.20;;;1.90;;
18510;SDS011;9384;48.044;11.616;2022-08-03T05:30:00;2.33;;;1.50;;
18510;SDS011;9384;48.044;11.616;2022-08-03T05:32:29;2.30;;;1.97;;
18510;SDS011;9384;48.044;11.616;2022-08-03T05:34:57;2.43;;;1.60;;
18510;SDS011;9384;48.044;11.616;2022-08-03T05:37:25;3.07;;;1.47;;
18510;SDS011;9384;48.044;11.616;2022-08-03T05:39:52;3.20;;;1.60;;
18510;SDS011;9384;48.044;11.616;2022-08-03T05:42:19;1.53;;;1.53;;
18510;SDS011;9384;48.044;11.616;2022-08-03T05:44:46;10.30;;;1.90;;
18510;SDS011;9384;48.044;11.616;2022-08-03T05:47:14;5.33;;;1.47;;
18510;SDS011;9384;48.044;11.616;2022-08-03T05:49:42;2.10;;;1.80;;
18510;SDS011;9384;48.044;11.616;2022-08-03T05:52:09;1.67;;;1.57;;
18510;SDS011;9384;48.044;11.616;2022-08-03T05:54:37;2.83;;;1.80;;
18510;SDS011;9384;48.044;11.616;2022-08-03T05:57:04;3.13;;;1.60;;
18510;SDS011;9384;48.044;11.616;2022-08-03T05:59:31;2.03;;;1.70;;
18510;SDS011;9384;48.044;11.616;2022-08-03T06:01:58;2.43;;;1.67;;
18510;SDS011;9384;48.044;11.616;2022-08-03T06:04:25;4.03;;;1.80;;
18510;SDS011;9384;48.044;11.616;2022-08-03T06:06:54;3.70;;;2.40;;
18510;SDS011;9384;48.044;11.616;2022-08-03T06:09:21;3.30;;;2.30;;
18510;SDS011;9384;48.044;11.616;2022-08-03T06:11:48;10.43;;;1.97;;
18510;SDS011;9384;48.044;11.616;2022-08-03T06:14:16;1.80;;;1.70;;
18510;SDS011;9384;48.044;11.616;2022-08-03T06:16:43;2.23;;;1.50;;
18510;SDS011;9384;48.044;11.616;2022-08-03T06:19:10;2.40;;;1.93;;
18510;SDS011;9384;48.044;11.616;2022-08-03T06:21:37;4.70;;;1.83;;
18510;SDS011;9384;48.044;11.616;2022-08-03T06:24:06;2.20;;;1.90;;
18510;SDS011;9384;48.044;11.616;2022-08-03T06:26:34;1.70;;;1.60;;
18510;SDS011;9384;48.044;11.616;2022-08-03T06:29:01;2.13;;;1.50;;
18510;SDS011;9384;48.044;11.616;2022-08-03T06:31:28;1.70;;;1.60;;
18510;SDS011;9384;48.044;11.616;2022-08-03T06:33:55;1.60;;;1.50;;
18510;SDS011;9384;48.044;11.616;2022-08-03T06:36:22;2.03;;;1.90;;
18510;SDS011;9384;48.044;11.616;2022-08-03T06:38:55;4.20;;;1.73;;
18510;SDS011;9384;48.044;11.616;2022-08-03T06:41:24;4.60;;;1.70;;
18510;SDS011;9384;48.044;11.616;2022-08-03T06:43:51;4.17;;;1.57;;
18510;SDS011;9384;48.044;11.616;2022-08-03T06:46:18;2.77;;;1.83;;
18510;SDS011;9384;48.044;11.616;2022-08-03T06:48:46;2.10;;;1.93;;
18510;SDS011;9384;48.044;11.616;2022-08-03T06:51:13;2.23;;;1.53;;
18510;SDS011;9384;48.044;11.616;2022-08-03T06:53:40;4.27;;;1.40;;
18510;SDS011;9384;48.044;11.616;2022-08-03T06:56:07;1.70;;;1.50;;
18510;SDS011;9384;48.044;11.616;2022-08-03T06:58:36;2.03;;;1.77;;
18510;SDS011;9384;48.044;11.616;2022-08-03T07:01:03;1.83;;;1.30;;
18510;SDS011;9384;48.044;11.616;2022-08-03T07:03:30;2.20;;;1.33;;
18510;SDS011;9384;48.044;11.616;2022-08-03T07:05:58;1.70;;;1.10;;
18510;SDS011;9384;48.044;11.616;2022-08-03T07:08:25;1.40;;;1.40;;
18510;SDS011;9384;48.044;11.616;2022-08-03T07:10:53;1.17;;;1.17;;
18510;SDS011;9384;48.044;11.616;2022-08-03T07:13:20;3.13;;;1.47;;
18510;SDS011;9384;48.044;11.616;2022-08-03T07:15:48;1.10;;;1.10;;
18510;SDS011;9384;48.044;11.616;2022-08-03T07:18:16;1.50;;;1.40;;
18510;SDS011;9384;48.044;11.616;2022-08-03T07:20:43;1.27;;;1.27;;
18510;SDS011;9384;48.044;11.616;2022-08-03T07:23:10;1.30;;;1.30;;
18510;SDS011;9384;48.044;11.616;2022-08-03T07:25:38;1.47;;;1.47;;
18510;SDS011;9384;48.044;11.616;2022-08-03T07:28:05;1.83;;;1.60;;
18510;SDS011;9384;48.044;11.616;2022-08-03T07:30:33;1.30;;;1.30;;
18510;SDS011;9384;48.044;11.616;2022-08-03T07:33:02;1.67;;;1.10;;
18510;SDS011;9384;48.044;11.616;2022-08-03T07:35:29;1.40;;;1.30;;
18510;SDS011;9384;48.044;11.616;2022-08-03T07:37:56;3.13;;;1.40;;
18510;SDS011;9384;48.044;11.616;2022-08-03T07:40:23;1.40;;;1.40;;
18510;SDS011;9384;48.044;11.616;2022-08-03T07:42:51;2.63;;;1.23;;
18510;SDS011;9384;48.044;11.616;2022-08-03T07:45:18;2.80;;;1.40;;
18510;SDS011;9384;48.044;11.616;2022-08-03T07:47:47;2.00;;;1.63;;
18510;SDS011;9384;48.044;11.616;2022-08-03T07:50:15;1.30;;;1.30;;
18510;SDS011;9384;48.044;11.616;2022-08-03T07:52:43;2.00;;;1.20;;
18510;SDS011;9384;48.044;11.616;2022-08-03T07:55:13;1.10;;;1.10;;
18510;SDS011;9384;48.044;11.616;2022-08-03T07:57:41;1.40;;;1.30;;
18510;SDS011;9384;48.044;11.616;2022-08-03T08:00:11;1.50;;;1.40;;
18510;SDS011;9384;48.044;11.616;2022-08-03T08:02:39;1.60;;;1.20;;
18510;SDS011;9384;48.044;11.616;2022-08-03T08:05:07;1.10;;;1.10;;
18510;SDS011;9384;48.044;11.616;2022-08-03T08:07:36;1.53;;;1.43;;
18510;SDS011;9384;48.044;11.616;2022-08-03T08:10:04;1.10;;;1.00;;
18510;SDS011;9384;48.044;11.616;2022-08-03T08:12:32;1.10;;;1.10;;
18510;SDS011;9384;48.044;11.616;2022-08-03T08:14:59;1.10;;;1.10;;
18510;SDS011;9384;48.044;11.616;2022-08-03T08:17:26;2.20;;;1.30;;
18510;SDS011;9384;48.044;11.616;2022-08-03T08:19:53;1.03;;;1.03;;
18510;SDS011;9384;48.044;11.616;2022-08-03T08:22:21;1.00;;;1.00;;
18510;SDS011;9384;48.044;11.616;2022-08-03T08:24:49;1.27;;;1.20;;
18510;SDS011;9384;48.044;11.616;2022-08-03T08:27:16;1.00;;;1.00;;
18510;SDS011;9384;48.044;11.616;2022-08-03T08:29:43;1.77;;;1.20;;
18510;SDS011;9384;48.044;11.616;2022-08-03T08:32:11;1.83;;;1.10;;
18510;SDS011;9384;48.044;11.616;2022-08-03T08:34:40;1.20;;;1.17;;
18510;SDS011;9384;48.044;11.616;2022-08-03T08:37:07;1.23;;;1.20;;
18510;SDS011;9384;48.044;11.616;2022-08-03T08:39:34;1.60;;;1.20;;
18510;SDS011;9384;48.044;11.616;2022-08-03T08:42:03;1.00;;;1.00;;
18510;SDS011;9384;48.044;11.616;2022-08-03T08:44:30;0.70;;;0.70;;
18510;SDS011;9384;48.044;11.616;2022-08-03T08:46:57;1.00;;;1.00;;
18510;SDS011;9384;48.044;11.616;2022-08-03T08:49:25;1.10;;;1.10;;
18510;SDS011;9384;48.044;11.616;2022-08-03T08:51:53;1.33;;;1.13;;
18510;SDS011;9384;48.044;11.616;2022-08-03T08:54:22;0.90;;;0.90;;
18510;SDS011;9384;48.044;11.616;2022-08-03T08:56:50;0.90;;;0.90;;
18510;SDS011;9384;48.044;11.616;2022-08-03T08:59:18;4.00;;;1.07;;
18510;SDS011;9384;48.044;11.616;2022-08-03T09:01:46;2.20;;;1.10;;
18510;SDS011;9384;48.044;11.616;2022-08-03T09:04:13;1.03;;;1.03;;
18510;SDS011;9384;48.044;11.616;2022-08-03T09:06:40;0.87;;;0.87;;
18510;SDS011;9384;48.044;11.616;2022-08-03T09:09:07;3.07;;;1.00;;
18510;SDS011;9384;48.044;11.616;2022-08-03T09:11:35;0.93;;;0.93;;
18510;SDS011;9384;48.044;11.616;2022-08-03T09:14:03;1.20;;;1.20;;
18510;SDS011;9384;48.044;11.616;2022-08-03T09:16:31;1.13;;;1.13;;
18510;SDS011;9384;48.044;11.616;2022-08-03T09:19:07;1.50;;;1.40;;
18510;SDS011;9384;48.044;11.616;2022-08-03T09:21:37;0.98;;;0.98;;
18510;SDS011;9384;48.044;11.616;2022-08-03T09:24:05;1.30;;;1.30;;
18510;SDS011;9384;48.044;11.616;2022-08-03T09:26:33;1.30;;;1.20;;
18510;SDS011;9384;48.044;11.616;2022-08-03T09:29:01;1.00;;;1.00;;
18510;SDS011;9384;48.044;11.616;2022-08-03T09:31:29;1.65;;;0.82;;
18510;SDS011;9384;48.044;11.616;2022-08-03T09:33:59;1.48;;;0.98;;
18510;SDS011;9384;48.044;11.616;2022-08-03T09:36:32;1.00;;;1.00;;
18510;SDS011;9384;48.044;11.616;2022-08-03T09:39:00;0.82;;;0.82;;
18510;SDS011;9384;48.044;11.616;2022-08-03T09:41:29;2.70;;;1.10;;
18510;SDS011;9384;48.044;11.616;2022-08-03T09:43:57;1.13;;;1.13;;
18510;SDS011;9384;48.044;11.616;2022-08-03T09:46:24;1.15;;;0.93;;
18510;SDS011;9384;48.044;11.616;2022-08-03T09:49:08;0.80;;;0.80;;
18510;SDS011;9384;48.044;11.616;2022-08-03T09:51:36;1.27;;;0.95;;
18510;SDS011;9384;48.044;11.616;2022-08-03T09:54:04;1.63;;;0.98;;
18510;SDS011;9384;48.044;11.616;2022-08-03T09:56:40;1.00;;;1.00;;
18510;SDS011;9384;48.044;11.616;2022-08-03T09:59:08;1.42;;;0.82;;
18510;SDS011;9384;48.044;11.616;2022-08-03T10:01:36;0.80;;;0.80;;
18510;SDS011;9384;48.044;11.616;2022-08-03T10:04:07;0.82;;;0.82;;
18510;SDS011;9384;48.044;11.616;2022-08-03T10:06:38;0.77;;;0.77;;
18510;SDS011;9384;48.044;11.616;2022-08-03T10:09:06;1.10;;;0.82;;
18510;SDS011;9384;48.044;11.616;2022-08-03T10:11:34;1.00;;;0.90;;
18510;SDS011;9384;48.044;11.616;2022-08-03T10:14:03;2.38;;;0.85;;
18510;SDS011;9384;48.044;11.616;2022-08-03T10:16:34;0.75;;;0.75;;
18510;SDS011;9384;48.044;11.616;2022-08-03T10:19:01;0.80;;;0.80;;
18510;SDS011;9384;48.044;11.616;2022-08-03T10:21:30;0.80;;;0.80;;
18510;SDS011;9384;48.044;11.616;2022-08-03T10:24:00;0.90;;;0.88;;
18510;SDS011;9384;48.044;11.616;2022-08-03T10:26:28;0.80;;;0.80;;
18510;SDS011;9384;48.044;11.616;2022-08-03T10:28:57;1.10;;;1.10;;
18510;SDS011;9384;48.044;11.616;2022-08-03T10:31:27;1.00;;;1.00;;
18510;SDS011;9384;48.044;11.616;2022-08-03T10:33:57;1.55;;;1.55;;
18510;SDS011;9384;48.044;11.616;2022-08-03T10:36:25;1.48;;;1.38;;
18510;SDS011;9384;48.044;11.616;2022-08-03T10:38:53;0.90;;;0.90;;
18510;SDS011;9384;48.044;11.616;2022-08-03T10:41:24;1.10;;;1.10;;
18510;SDS011;9384;48.044;11.616;2022-08-03T10:43:57;0.75;;;0.75;;
18510;SDS011;9384;48.044;11.616;2022-08-03T10:46:25;0.90;;;0.90;;
18510;SDS011;9384;48.044;11.616;2022-08-03T10:48:53;0.73;;;0.73;;
18510;SDS011;9384;48.044;11.616;2022-08-03T10:51:20;0.90;;;0.90;;
18510;SDS011;9384;48.044;11.616;2022-08-03T10:53:48;0.90;;;0.90;;
18510;SDS011;9384;48.044;11.616;2022-08-03T11:02:05;2.25;;;0.80;;
18510;SDS011;9384;48.044;11.616;2022-08-03T11:04:33;0.95;;;0.95;;
18510;SDS011;9384;48.044;11.616;2022-08-03T11:07:19;0.93;;;0.93;;
18510;SDS011;9384;48.044;11.616;2022-08-03T11:09:49;1.10;;;1.10;;
18510;SDS011;9384;48.044;11.616;2022-08-03T11:12:20;1.35;;;1.02;;
18510;SDS011;9384;48.044;11.616;2022-08-03T11:14:48;0.90;;;0.90;;
18510;SDS011;9384;48.044;11.616;2022-08-03T11:17:16;0.80;;;0.80;;
18510;SDS011;9384;48.044;11.616;2022-08-03T11:19:45;1.40;;;1.05;;
18510;SDS011;9384;48.044;11.616;2022-08-03T11:22:12;3.38;;;0.77;;
18510;SDS011;9384;48.044;11.616;2022-08-03T11:25:01;0.80;;;0.80;;
18510;SDS011;9384;48.044;11.616;2022-08-03T11:27:31;0.90;;;0.90;;
18510;SDS011;9384;48.044;11.616;2022-08-03T11:30:00;1.33;;;0.85;;
18510;SDS011;9384;48.044;11.616;2022-08-03T11:35:17;0.85;;;0.85;;
18510;SDS011;9384;48.044;11.616;2022-08-03T11:40:37;0.80;;;0.80;;
18510;SDS011;9384;48.044;11.616;2022-08-03T11:43:05;0.73;;;0.73;;
18510;SDS011;9384;48.044;11.616;2022-08-03T11:45:32;0.70;;;0.70;;
18510;SDS011;9384;48.044;11.616;2022-08-03T11:48:01;3.30;;;0.93;;
18510;SDS011;9384;48.044;11.616;2022-08-03T11:50:35;0.82;;;0.82;;
18510;SDS011;9384;48.044;11.616;2022-08-03T11:53:03;0.90;;;0.90;;
18510;SDS011;9384;48.044;11.616;2022-08-03T11:55:31;0.90;;;0.90;;
18510;SDS011;9384;48.044;11.616;2022-08-03T11:57:58;0.98;;;0.98;;
18510;SDS011;9384;48.044;11.616;2022-08-03T12:00:26;1.25;;;0.80;;
18510;SDS011;9384;48.044;11.616;2022-08-03T12:02:55;0.95;;;0.95;;
18510;SDS011;9384;48.044;11.616;2022-08-03T12:05:31;1.65;;;1.10;;
18510;SDS011;9384;48.044;11.616;2022-08-03T12:08:00;1.17;;;0.90;;
18510;SDS011;9384;48.044;11.616;2022-08-03T12:10:27;1.00;;;0.90;;
18510;SDS011;9384;48.044;11.616;2022-08-03T12:12:54;0.90;;;0.90;;
18510;SDS011;9384;48.044;11.616;2022-08-03T12:15:25;1.27;;;1.15;;
18510;SDS011;9384;48.044;11.616;2022-08-03T12:17:52;1.98;;;0.75;;
18510;SDS011;9384;48.044;11.616;2022-08-03T12:20:20;0.70;;;0.70;;
18510;SDS011;9384;48.044;11.616;2022-08-03T12:22:48;0.93;;;0.90;;
18510;SDS011;9384;48.044;11.616;2022-08-03T12:25:21;3.33;;;2.38;;
18510;SDS011;9384;48.044;11.616;2022-08-03T12:27:49;0.80;;;0.80;;
18510;SDS011;9384;48.044;11.616;2022-08-03T12:30:16;0.88;;;0.88;;
18510;SDS011;9384;48.044;11.616;2022-08-03T12:32:44;0.80;;;0.80;;
18510;SDS011;9384;48.044;11.616;2022-08-03T12:35:20;0.63;;;0.63;;
18510;SDS011;9384;48.044;11.616;2022-08-03T12:37:49;0.80;;;0.80;;
18510;SDS011;9384;48.044;11.616;2022-08-03T12:40:24;1.42;;;1.00;;
18510;SDS011;9384;48.044;11.616;2022-08-03T12:42:52;1.17;;;0.90;;
18510;SDS011;9384;48.044;11.616;2022-08-03T12:45:20;1.27;;;0.90;;
18510;SDS011;9384;48.044;11.616;2022-08-03T12:47:48;0.80;;;0.80;;
18510;SDS011;9384;48.044;11.616;2022-08-03T12:50:22;0.80;;;0.80;;
18510;SDS011;9384;48.044;11.616;2022-08-03T12:52:49;1.30;;;0.90;;
18510;SDS011;9384;48.044;11.616;2022-08-03T12:55:18;0.88;;;0.88;;
18510;SDS011;9384;48.044;11.616;2022-08-03T12:57:47;0.93;;;0.90;;
18510;SDS011;9384;48.044;11.616;2022-08-03T13:00:15;0.90;;;0.90;;
18510;SDS011;9384;48.044;11.616;2022-08-03T13:02:43;0.70;;;0.70;;
18510;SDS011;9384;48.044;11.616;2022-08-03T13:05:13;0.80;;;0.80;;
18510;SDS011;9384;48.044;11.616;2022-08-03T13:07:41;0.75;;;0.75;;
18510;SDS011;9384;48.044;11.616;2022-08-03T13:10:08;1.20;;;1.02;;
18510;SDS011;9384;48.044;11.616;2022-08-03T13:12:44;0.80;;;0.80;;
18510;SDS011;9384;48.044;11.616;2022-08-03T13:15:13;0.90;;;0.90;;
18510;SDS011;9384;48.044;11.616;2022-08-03T13:17:40;0.77;;;0.77;;
18510;SDS011;9384;48.044;11.616;2022-08-03T13:20:07;1.42;;;1.00;;
18510;SDS011;9384;48.044;11.616;2022-08-03T13:22:35;0.82;;;0.82;;
18510;SDS011;9384;48.044;11.616;2022-08-03T13:25:02;0.73;;;0.73;;
18510;SDS011;9384;48.044;11.616;2022-08-03T13:27:29;0.75;;;0.75;;
18510;SDS011;9384;48.044;11.616;2022-08-03T13:29:57;0.98;;;0.98;;
18510;SDS011;9384;48.044;11.616;2022-08-03T13:32:25;0.70;;;0.70;;
18510;SDS011;9384;48.044;11.616;2022-08-03T13:34:52;0.82;;;0.77;;
18510;SDS011;9384;48.044;11.616;2022-08-03T13:37:19;0.85;;;0.85;;
18510;SDS011;9384;48.044;11.616;2022-08-03T13:39:47;1.02;;;0.90;;
18510;SDS011;9384;48.044;11.616;2022-08-03T13:42:14;0.93;;;0.93;;
18510;SDS011;9384;48.044;11.616;2022-08-03T13:44:41;1.20;;;1.20;;
18510;SDS011;9384;48.044;11.616;2022-08-03T13:47:08;1.45;;;0.57;;
18510;SDS011;9384;48.044;11.616;2022-08-03T13:49:37;0.80;;;0.80;;
18510;SDS011;9384;48.044;11.616;2022-08-03T13:52:04;0.70;;;0.70;;
18510;SDS011;9384;48.044;11.616;2022-08-03T13:54:31;0.70;;;0.70;;
18510;SDS011;9384;48.044;11.616;2022-08-03T13:56:59;0.80;;;0.80;;
18510;SDS011;9384;48.044;11.616;2022-08-03T13:59:26;1.15;;;0.80;;
18510;SDS011;9384;48.044;11.616;2022-08-03T14:01:53;1.55;;;0.75;;
18510;SDS011;9384;48.044;11.616;2022-08-03T14:04:20;1.05;;;1.00;;
18510;SDS011;9384;48.044;11.616;2022-08-03T14:06:49;1.55;;;1.00;;
18510;SDS011;9384;48.044;11.616;2022-08-03T14:09:16;0.73;;;0.70;;
18510;SDS011;9384;48.044;11.616;2022-08-03T14:11:43;0.80;;;0.80;;
18510;SDS011;9384;48.044;11.616;2022-08-03T14:14:11;0.70;;;0.70;;
18510;SDS011;9384;48.044;11.616;2022-08-03T14:16:38;0.85;;;0.85;;
18510;SDS011;9384;48.044;11.616;2022-08-03T14:19:05;1.23;;;1.13;;
18510;SDS011;9384;48.044;11.616;2022-08-03T14:21:33;0.90;;;0.90;;
18510;SDS011;9384;48.044;11.616;2022-08-03T14:24:01;0.75;;;0.75;;
18510;SDS011;9384;48.044;11.616;2022-08-03T14:26:29;0.90;;;0.90;;
18510;SDS011;9384;48.044;11.616;2022-08-03T14:28:56;0.98;;;0.98;;
18510;SDS011;9384;48.044;11.616;2022-08-03T14:31:23;2.17;;;0.95;;
18510;SDS011;9384;48.044;11.616;2022-08-03T14:33:50;0.80;;;0.80;;
18510;SDS011;9384;48.044;11.616;2022-08-03T14:36:18;0.88;;;0.88;;
18510;SDS011;9384;48.044;11.616;2022-08-03T14:38:45;0.70;;;0.70;;
18510;SDS011;9384;48.044;11.616;2022-08-03T14:41:13;0.70;;;0.70;;
18510;SDS011;9384;48.044;11.616;2022-08-03T14:43:41;1.02;;;0.60;;
18510;SDS011;9384;48.044;11.616;2022-08-03T14:46:08;1.50;;;0.70;;
18510;SDS011;9384;48.044;11.616;2022-08-03T14:48:35;0.63;;;0.63;;
18510;SDS011;9384;48.044;11.616;2022-08-03T14:51:03;0.68;;;0.68;;
18510;SDS011;9384;48.044;11.616;2022-08-03T14:53:30;0.63;;;0.63;;
18510;SDS011;9384;48.044;11.616;2022-08-03T14:55:57;0.73;;;0.73;;
18510;SDS011;9384;48.044;11.616;2022-08-03T14:58:26;0.73;;;0.73;;
18510;SDS011;9384;48.044;11.616;2022-08-03T15:00:53;0.68;;;0.68;;
18510;SDS011;9384;48.044;11.616;2022-08-03T15:03:21;0.73;;;0.73;;
18510;SDS011;9384;48.044;11.616;2022-08-03T15:05:49;0.75;;;0.75;;
18510;SDS011;9384;48.044;11.616;2022-08-03T15:08:16;1.05;;;0.80;;